sensor_id;sensor_type;location;lat;lon;timestamp;pressure;altitude;pressure_sealevel;temperature;humidity
71774;BME280;59607;52.130;5.430;2023-07-02T00:01:26;100732.97;;;17.06;100.00
71774;BME280;59607;52.130;5.430;2023-07-02T00:04:16;100728.28;;;17.01;100.00
71774;BME280;59607;52.130;5.430;2023-07-02T00:06:47;100724.41;;;16.97;100.00
71774;BME280;59607;52.130;5.430;2023-07-02T00:09:14;100714.44;;;16.93;100.00
71774;BME280;59607;52.130;5.430;2023-07-02T00:11:45;100705.69;;;16.85;100.00
71774;BME280;59607;52.130;5.430;2023-07-02T00:14:14;100724.44;;;16.84;100.00
71774;BME280;59607;52.130;5.430;2023-07-02T00:17:06;100726.09;;;16.78;100.00
71774;BME280;59607;52.130;5.430;2023-07-02T00:19:33;100734.66;;;16.80;100.00
71774;BME280;59607;52.130;5.430;2023-07-02T00:22:05;100734.25;;;16.76;100.00
71774;BME280;59607;52.130;5.430;2023-07-02T00:24:34;100747.91;;;16.73;100.00
71774;BME280;59607;52.130;5.430;2023-07-02T00:27:07;100748.75;;;16.74;100.00
71774;BME280;59607;52.130;5.430;2023-07-02T00:29:37;100754.03;;;16.74;100.00
71774;BME280;59607;52.130;5.430;2023-07-02T00:32:09;100756.47;;;16.75;100.00
71774;BME280;59607;52.130;5.430;2023-07-02T00:34:35;100748.91;;;16.72;100.00
71774;BME280;59607;52.130;5.430;2023-07-02T00:37:02;100747.09;;;16.73;100.00
71774;BME280;59607;52.130;5.430;2023-07-02T00:39:38;100748.53;;;16.69;100.00
71774;BME280;59607;52.130;5.430;2023-07-02T00:42:04;100749.31;;;16.69;100.00
71774;BME280;59607;52.130;5.430;2023-07-02T00:44:36;100752.19;;;16.68;100.00
71774;BME280;59607;52.130;5.430;2023-07-02T00:47:08;100755.66;;;16.68;100.00
71774;BME280;59607;52.130;5.430;2023-07-02T00:49:37;100759.53;;;16.65;100.00
71774;BME280;59607;52.130;5.430;2023-07-02T00:52:09;100756.47;;;16.62;100.00
71774;BME280;59607;52.130;5.430;2023-07-02T00:54:36;100753.41;;;16.58;100.00
71774;BME280;59607;52.130;5.430;2023-07-02T00:57:08;100764.41;;;16.55;100.00
71774;BME280;59607;52.130;5.430;2023-07-02T00:59:35;100759.53;;;16.52;100.00
71774;BME280;59607;52.130;5.430;2023-07-02T01:02:04;100756.69;;;16.47;100.00
71774;BME280;59607;52.130;5.430;2023-07-02T01:04:32;100759.75;;;16.44;100.00
71774;BME280;59607;52.130;5.430;2023-07-02T01:06:58;100762.19;;;16.45;100.00
71774;BME280;59607;52.130;5.430;2023-07-02T01:09:29;100758.72;;;16.38;100.00
71774;BME280;59607;52.130;5.430;2023-07-02T01:11:58;100762.59;;;16.35;100.00
71774;BME280;59607;52.130;5.430;2023-07-02T01:14:41;100774.59;;;16.31;100.00
71774;BME280;59607;52.130;5.430;2023-07-02T01:17:10;100763.59;;;16.27;100.00
71774;BME280;59607;52.130;5.430;2023-07-02T01:19:47;100767.47;;;16.25;100.00
71774;BME280;59607;52.130;5.430;2023-07-02T01:22:23;100761.97;;;16.20;100.00
71774;BME280;59607;52.130;5.430;2023-07-02T01:24:51;100769.06;;;16.12;100.00
71774;BME280;59607;52.130;5.430;2023-07-02T01:27:18;100772.13;;;16.02;100.00
71774;BME280;59607;52.130;5.430;2023-07-02T01:29:45;100771.06;;;15.97;100.00
71774;BME280;59607;52.130;5.430;2023-07-02T01:32:16;100772.06;;;15.89;100.00
71774;BME280;59607;52.130;5.430;2023-07-02T01:34:42;100764.72;;;15.77;100.00
71774;BME280;59607;52.130;5.430;2023-07-02T01:37:16;100777.91;;;15.71;100.00
71774;BME280;59607;52.130;5.430;2023-07-02T01:39:43;100783.56;;;15.61;100.00
71774;BME280;59607;52.130;5.430;2023-07-02T01:42:18;100782.75;;;15.53;100.00
71774;BME280;59607;52.130;5.430;2023-07-02T01:44:47;100781.09;;;15.46;100.00
71774;BME280;59607;52.130;5.430;2023-07-02T01:47:14;100774.94;;;15.38;100.00
71774;BME280;59607;52.130;5.430;2023-07-02T01:49:42;100769.63;;;15.32;100.00
71774;BME280;59607;52.130;5.430;2023-07-02T01:52:17;100774.06;;;15.24;100.00
71774;BME280;59607;52.130;5.430;2023-07-02T01:54:45;100789.88;;;15.17;100.00
71774;BME280;59607;52.130;5.430;2023-07-02T01:57:20;100781.91;;;15.11;100.00
71774;BME280;59607;52.130;5.430;2023-07-02T01:59:46;100785.53;;;15.03;100.00
71774;BME280;59607;52.130;5.430;2023-07-02T02:02:15;100785.28;;;14.98;100.00
71774;BME280;59607;52.130;5.430;2023-07-02T02:04:48;100786.50;;;14.95;100.00
71774;BME280;59607;52.130;5.430;2023-07-02T02:07:15;100789.34;;;14.93;100.00
71774;BME280;59607;52.130;5.430;2023-07-02T02:09:55;100788.06;;;14.89;100.00
71774;BME280;59607;52.130;5.430;2023-07-02T02:12:22;100798.59;;;14.83;100.00
71774;BME280;59607;52.130;5.430;2023-07-02T02:14:49;100794.88;;;14.77;100.00
71774;BME280;59607;52.130;5.430;2023-07-02T02:17:16;100792.38;;;14.68;100.00
71774;BME280;59607;52.130;5.430;2023-07-02T02:19:42;100798.03;;;14.65;100.00
71774;BME280;59607;52.130;5.430;2023-07-02T02:22:15;100790.50;;;14.62;100.00
71774;BME280;59607;52.130;5.430;2023-07-02T02:24:42;100793.47;;;14.52;100.00
71774;BME280;59607;52.130;5.430;2023-07-02T02:27:09;100794.84;;;14.48;100.00
71774;BME280;59607;52.130;5.430;2023-07-02T02:29:39;100793.59;;;14.44;100.00
71774;BME280;59607;52.130;5.430;2023-07-02T02:32:06;100795.97;;;14.39;100.00
71774;BME280;59607;52.130;5.430;2023-07-02T02:34:35;100793.28;;;14.32;100.00
71774;BME280;59607;52.130;5.430;2023-07-02T02:37:04;100796.31;;;14.29;100.00
71774;BME280;59607;52.130;5.430;2023-07-02T02:39:32;100801.16;;;14.25;100.00
71774;BME280;59607;52.130;5.430;2023-07-02T02:42:05;100806.81;;;14.22;100.00
71774;BME280;59607;52.130;5.430;2023-07-02T02:44:33;100806.53;;;14.17;100.00
71774;BME280;59607;52.130;5.430;2023-07-02T02:47:06;100807.09;;;14.12;100.00
71774;BME280;59607;52.130;5.430;2023-07-02T02:49:32;100811.47;;;14.05;100.00
71774;BME280;59607;52.130;5.430;2023-07-02T02:52:05;100808.22;;;14.03;100.00
71774;BME280;59607;52.130;5.430;2023-07-02T02:54:34;100816.13;;;14.03;100.00
71774;BME280;59607;52.130;5.430;2023-07-02T02:57:00;100811.06;;;14.01;100.00
71774;BME280;59607;52.130;5.430;2023-07-02T02:59:41;100808.34;;;13.94;100.00
71774;BME280;59607;52.130;5.430;2023-07-02T03:02:10;100813.78;;;13.93;100.00
71774;BME280;59607;52.130;5.430;2023-07-02T03:04:45;100810.53;;;13.91;100.00
71774;BME280;59607;52.130;5.430;2023-07-02T03:07:21;100817.59;;;13.90;100.00
71774;BME280;59607;52.130;5.430;2023-07-02T03:09:53;100817.78;;;13.89;100.00
71774;BME280;59607;52.130;5.430;2023-07-02T03:12:21;100820.25;;;13.90;100.00
71774;BME280;59607;52.130;5.430;2023-07-02T03:14:54;100816.63;;;13.91;100.00
71774;BME280;59607;52.130;5.430;2023-07-02T03:17:25;100822.69;;;13.92;100.00
71774;BME280;59607;52.130;5.430;2023-07-02T03:19:53;100824.94;;;13.95;100.00
71774;BME280;59607;52.130;5.430;2023-07-02T03:22:20;100828.41;;;13.96;100.00
71774;BME280;59607;52.130;5.430;2023-07-02T03:24:46;100825.97;;;13.94;100.00
71774;BME280;59607;52.130;5.430;2023-07-02T03:27:19;100837.72;;;13.91;100.00
71774;BME280;59607;52.130;5.430;2023-07-02T03:29:46;100832.63;;;13.90;100.00
71774;BME280;59607;52.130;5.430;2023-07-02T03:32:16;100835.06;;;13.91;100.00
71774;BME280;59607;52.130;5.430;2023-07-02T03:34:45;100839.53;;;13.91;100.00
71774;BME280;59607;52.130;5.430;2023-07-02T03:37:14;100836.06;;;13.90;100.00
71774;BME280;59607;52.130;5.430;2023-07-02T03:39:41;100831.44;;;13.92;100.00
71774;BME280;59607;52.130;5.430;2023-07-02T03:42:07;100832.06;;;13.94;100.00
71774;BME280;59607;52.130;5.430;2023-07-02T03:44:36;100828.03;;;13.99;100.00
71774;BME280;59607;52.130;5.430;2023-07-02T03:47:03;100833.13;;;14.00;100.00
71774;BME280;59607;52.130;5.430;2023-07-02T03:49:33;100839.50;;;14.06;100.00
71774;BME280;59607;52.130;5.430;2023-07-02T03:52:03;100842.19;;;14.13;100.00
71774;BME280;59607;52.130;5.430;2023-07-02T03:54:29;100846.75;;;14.19;100.00
71774;BME280;59607;52.130;5.430;2023-07-02T03:56:58;100848.44;;;14.27;100.00
71774;BME280;59607;52.130;5.430;2023-07-02T03:59:29;100854.22;;;14.37;100.00
71774;BME280;59607;52.130;5.430;2023-07-02T04:01:55;100850.47;;;14.47;100.00
71774;BME280;59607;52.130;5.430;2023-07-02T04:09:39;100854.72;;;14.69;100.00
71774;BME280;59607;52.130;5.430;2023-07-02T04:12:15;100859.06;;;14.77;100.00
71774;BME280;59607;52.130;5.430;2023-07-02T04:14:41;100860.59;;;14.87;100.00
71774;BME280;59607;52.130;5.430;2023-07-02T04:17:11;100852.94;;;14.99;100.00
71774;BME280;59607;52.130;5.430;2023-07-02T04:19:40;100855.69;;;15.12;99.24
71774;BME280;59607;52.130;5.430;2023-07-02T04:22:07;100867.13;;;15.20;97.39
71774;BME280;59607;52.130;5.430;2023-07-02T04:24:36;100867.25;;;15.40;97.10
71774;BME280;59607;52.130;5.430;2023-07-02T04:27:07;100859.50;;;16.43;92.03
71774;BME280;59607;52.130;5.430;2023-07-02T04:29:54;100861.50;;;18.02;81.46
71774;BME280;59607;52.130;5.430;2023-07-02T04:32:27;100857.84;;;19.19;74.10
71774;BME280;59607;52.130;5.430;2023-07-02T04:34:54;100861.72;;;19.91;68.60
71774;BME280;59607;52.130;5.430;2023-07-02T04:37:23;100862.97;;;20.62;65.06
71774;BME280;59607;52.130;5.430;2023-07-02T04:39:54;100864.06;;;21.21;63.33
71774;BME280;59607;52.130;5.430;2023-07-02T04:42:21;100864.78;;;21.81;60.50
71774;BME280;59607;52.130;5.430;2023-07-02T04:44:54;100860.31;;;22.16;58.40
71774;BME280;59607;52.130;5.430;2023-07-02T04:47:21;100860.13;;;22.70;56.49
71774;BME280;59607;52.130;5.430;2023-07-02T04:49:50;100864.78;;;23.36;55.23
71774;BME280;59607;52.130;5.430;2023-07-02T04:52:29;100864.03;;;23.86;53.79
71774;BME280;59607;52.130;5.430;2023-07-02T04:54:57;100863.38;;;24.28;52.05
71774;BME280;59607;52.130;5.430;2023-07-02T04:57:24;100856.25;;;24.83;50.53
71774;BME280;59607;52.130;5.430;2023-07-02T04:59:50;100870.16;;;25.12;49.01
71774;BME280;59607;52.130;5.430;2023-07-02T05:02:22;100876.91;;;25.25;49.56
71774;BME280;59607;52.130;5.430;2023-07-02T05:04:49;100874.56;;;25.45;47.93
71774;BME280;59607;52.130;5.430;2023-07-02T05:07:18;100875.78;;;25.80;46.99
71774;BME280;59607;52.130;5.430;2023-07-02T05:09:45;100869.91;;;26.09;46.52
71774;BME280;59607;52.130;5.430;2023-07-02T05:12:11;100877.44;;;26.23;46.77
71774;BME280;59607;52.130;5.430;2023-07-02T05:14:44;100881.50;;;26.31;45.90
71774;BME280;59607;52.130;5.430;2023-07-02T05:17:14;100878.81;;;26.57;45.25
71774;BME280;59607;52.130;5.430;2023-07-02T05:19:44;100868.03;;;26.78;44.49
71774;BME280;59607;52.130;5.430;2023-07-02T05:22:12;100879.84;;;26.87;43.35
71774;BME280;59607;52.130;5.430;2023-07-02T05:24:38;100886.28;;;27.02;44.27
71774;BME280;59607;52.130;5.430;2023-07-02T05:27:10;100878.59;;;27.45;43.92
71774;BME280;59607;52.130;5.430;2023-07-02T05:29:40;100882.28;;;27.70;42.56
71774;BME280;59607;52.130;5.430;2023-07-02T05:32:10;100881.44;;;27.75;42.48
71774;BME280;59607;52.130;5.430;2023-07-02T05:34:39;100883.28;;;27.85;42.64
71774;BME280;59607;52.130;5.430;2023-07-02T05:37:06;100880.34;;;28.16;42.14
71774;BME280;59607;52.130;5.430;2023-07-02T05:39:41;100889.34;;;28.41;41.49
71774;BME280;59607;52.130;5.430;2023-07-02T05:42:08;100896.06;;;28.74;41.07
71774;BME280;59607;52.130;5.430;2023-07-02T05:44:35;100905.75;;;28.75;40.27
71774;BME280;59607;52.130;5.430;2023-07-02T05:47:07;100905.25;;;28.73;40.68
71774;BME280;59607;52.130;5.430;2023-07-02T05:49:56;100903.09;;;28.99;41.12
71774;BME280;59607;52.130;5.430;2023-07-02T05:52:28;100903.34;;;29.03;40.03
71774;BME280;59607;52.130;5.430;2023-07-02T05:54:55;100902.81;;;29.25;39.63
71774;BME280;59607;52.130;5.430;2023-07-02T05:57:21;100908.16;;;29.06;40.12
71774;BME280;59607;52.130;5.430;2023-07-02T05:59:51;100911.31;;;29.13;39.65
71774;BME280;59607;52.130;5.430;2023-07-02T06:02:18;100915.31;;;29.21;39.07
71774;BME280;59607;52.130;5.430;2023-07-02T06:04:45;100915.34;;;29.16;40.22
71774;BME280;59607;52.130;5.430;2023-07-02T06:07:15;100913.22;;;29.37;37.94
71774;BME280;59607;52.130;5.430;2023-07-02T06:09:42;100914.59;;;29.10;39.01
71774;BME280;59607;52.130;5.430;2023-07-02T06:12:11;100921.66;;;29.30;38.72
71774;BME280;59607;52.130;5.430;2023-07-02T06:14:40;100922.53;;;29.01;39.13
71774;BME280;59607;52.130;5.430;2023-07-02T06:17:07;100924.16;;;28.73;39.08
71774;BME280;59607;52.130;5.430;2023-07-02T06:19:37;100923.44;;;28.21;40.45
71774;BME280;59607;52.130;5.430;2023-07-02T06:22:04;100926.53;;;27.38;41.23
71774;BME280;59607;52.130;5.430;2023-07-02T06:24:30;100929.59;;;26.11;43.13
71774;BME280;59607;52.130;5.430;2023-07-02T06:27:06;100940.34;;;24.99;46.72
71774;BME280;59607;52.130;5.430;2023-07-02T06:29:33;100950.44;;;24.53;47.45
71774;BME280;59607;52.130;5.430;2023-07-02T06:32:10;100948.53;;;23.99;49.01
71774;BME280;59607;52.130;5.430;2023-07-02T06:34:36;100945.59;;;23.56;50.76
71774;BME280;59607;52.130;5.430;2023-07-02T06:37:03;100944.91;;;23.43;50.88
71774;BME280;59607;52.130;5.430;2023-07-02T06:39:35;100949.66;;;22.84;52.24
71774;BME280;59607;52.130;5.430;2023-07-02T06:42:01;100952.13;;;21.98;53.09
71774;BME280;59607;52.130;5.430;2023-07-02T06:44:30;100951.97;;;21.40;54.94
71774;BME280;59607;52.130;5.430;2023-07-02T06:46:57;100966.50;;;20.89;56.91
71774;BME280;59607;52.130;5.430;2023-07-02T06:49:24;100970.06;;;20.71;57.58
71774;BME280;59607;52.130;5.430;2023-07-02T06:51:50;100968.97;;;20.48;57.30
71774;BME280;59607;52.130;5.430;2023-07-02T06:54:22;100976.34;;;20.15;58.25
71774;BME280;59607;52.130;5.430;2023-07-02T06:56:53;100979.53;;;20.05;58.37
71774;BME280;59607;52.130;5.430;2023-07-02T06:59:24;100982.44;;;20.34;57.26
71774;BME280;59607;52.130;5.430;2023-07-02T07:01:51;100979.56;;;20.67;56.82
71774;BME280;59607;52.130;5.430;2023-07-02T07:04:26;100980.53;;;20.84;56.56
71774;BME280;59607;52.130;5.430;2023-07-02T07:06:54;100992.91;;;20.79;57.26
71774;BME280;59607;52.130;5.430;2023-07-02T07:09:24;100999.03;;;20.67;56.82
71774;BME280;59607;52.130;5.430;2023-07-02T07:11:55;100991.22;;;20.54;57.70
71774;BME280;59607;52.130;5.430;2023-07-02T07:14:28;100998.19;;;20.98;57.19
71774;BME280;59607;52.130;5.430;2023-07-02T07:16:56;100997.41;;;21.09;56.49
71774;BME280;59607;52.130;5.430;2023-07-02T07:19:23;101003.31;;;20.99;55.90
71774;BME280;59607;52.130;5.430;2023-07-02T07:21:56;101004.28;;;20.74;55.64
71774;BME280;59607;52.130;5.430;2023-07-02T07:24:27;101005.88;;;20.75;54.23
71774;BME280;59607;52.130;5.430;2023-07-02T07:26:59;101016.16;;;20.59;56.11
71774;BME280;59607;52.130;5.430;2023-07-02T07:29:25;101002.75;;;20.97;55.14
71774;BME280;59607;52.130;5.430;2023-07-02T07:31:55;101013.03;;;21.05;56.11
71774;BME280;59607;52.130;5.430;2023-07-02T07:34:22;100999.75;;;21.29;53.17
71774;BME280;59607;52.130;5.430;2023-07-02T07:36:48;101005.03;;;20.93;54.17
71774;BME280;59607;52.130;5.430;2023-07-02T07:39:15;101026.75;;;20.47;54.91
71774;BME280;59607;52.130;5.430;2023-07-02T07:41:47;101024.59;;;20.56;55.20
71774;BME280;59607;52.130;5.430;2023-07-02T07:44:16;101018.16;;;20.95;52.83
71774;BME280;59607;52.130;5.430;2023-07-02T07:46:48;101013.28;;;21.04;52.08
71774;BME280;59607;52.130;5.430;2023-07-02T07:49:15;101023.03;;;20.98;53.06
71774;BME280;59607;52.130;5.430;2023-07-02T07:51:41;101022.22;;;21.10;51.17
71774;BME280;59607;52.130;5.430;2023-07-02T07:54:08;101025.13;;;21.20;51.30
71774;BME280;59607;52.130;5.430;2023-07-02T07:56:41;101026.78;;;21.21;50.10
71774;BME280;59607;52.130;5.430;2023-07-02T07:59:10;101027.31;;;20.99;50.41
71774;BME280;59607;52.130;5.430;2023-07-02T08:01:41;101032.75;;;20.74;50.80
71774;BME280;59607;52.130;5.430;2023-07-02T08:04:14;101031.66;;;20.32;49.77
71774;BME280;59607;52.130;5.430;2023-07-02T08:06:42;101026.91;;;19.96;51.40
71774;BME280;59607;52.130;5.430;2023-07-02T08:09:10;101033.81;;;20.42;51.86
71774;BME280;59607;52.130;5.430;2023-07-02T08:11:41;101027.13;;;20.82;50.51
71774;BME280;59607;52.130;5.430;2023-07-02T08:14:08;101023.66;;;21.36;49.65
71774;BME280;59607;52.130;5.430;2023-07-02T08:16:40;101028.16;;;21.48;48.55
71774;BME280;59607;52.130;5.430;2023-07-02T08:19:14;101027.94;;;21.37;50.07
71774;BME280;59607;52.130;5.430;2023-07-02T08:21:43;101032.09;;;21.33;50.15
71774;BME280;59607;52.130;5.430;2023-07-02T08:24:17;101033.59;;;21.05;51.84
71774;BME280;59607;52.130;5.430;2023-07-02T08:26:46;101044.88;;;20.88;49.64
71774;BME280;59607;52.130;5.430;2023-07-02T08:29:16;101034.47;;;20.37;49.41
71774;BME280;59607;52.130;5.430;2023-07-02T08:31:42;101039.13;;;20.42;50.14
71774;BME280;59607;52.130;5.430;2023-07-02T08:34:10;101037.78;;;20.51;51.42
71774;BME280;59607;52.130;5.430;2023-07-02T08:36:40;101037.72;;;21.01;50.57
71774;BME280;59607;52.130;5.430;2023-07-02T08:39:21;101043.94;;;20.82;50.93
71774;BME280;59607;52.130;5.430;2023-07-02T08:41:48;101047.47;;;20.45;50.99
71774;BME280;59607;52.130;5.430;2023-07-02T08:44:21;101047.56;;;20.20;52.53
71774;BME280;59607;52.130;5.430;2023-07-02T08:46:49;101059.78;;;20.09;50.17
71774;BME280;59607;52.130;5.430;2023-07-02T08:49:24;101049.00;;;20.22;51.54
71774;BME280;59607;52.130;5.430;2023-07-02T08:51:53;101065.13;;;20.58;48.91
71774;BME280;59607;52.130;5.430;2023-07-02T08:54:25;101064.66;;;20.80;49.69
71774;BME280;59607;52.130;5.430;2023-07-02T08:56:52;101057.03;;;21.15;48.90
71774;BME280;59607;52.130;5.430;2023-07-02T08:59:20;101053.34;;;21.40;48.65
71774;BME280;59607;52.130;5.430;2023-07-02T09:01:52;101044.53;;;21.75;47.85
71774;BME280;59607;52.130;5.430;2023-07-02T09:04:23;101052.31;;;21.65;47.28
71774;BME280;59607;52.130;5.430;2023-07-02T09:07:04;101057.03;;;21.27;48.06
71774;BME280;59607;52.130;5.430;2023-07-02T09:09:44;101056.25;;;21.26;49.74
71774;BME280;59607;52.130;5.430;2023-07-02T09:12:43;101062.94;;;21.17;48.69
71774;BME280;59607;52.130;5.430;2023-07-02T09:15:10;101066.28;;;21.12;48.63
71774;BME280;59607;52.130;5.430;2023-07-02T09:17:37;101075.28;;;20.99;48.45
71774;BME280;59607;52.130;5.430;2023-07-02T09:20:05;101073.53;;;20.93;49.53
71774;BME280;59607;52.130;5.430;2023-07-02T09:22:54;101069.72;;;21.01;48.92
71774;BME280;59607;52.130;5.430;2023-07-02T09:25:21;101069.38;;;21.52;47.50
71774;BME280;59607;52.130;5.430;2023-07-02T09:27:48;101066.84;;;21.81;46.42
71774;BME280;59607;52.130;5.430;2023-07-02T09:30:18;101062.72;;;22.26;45.88
71774;BME280;59607;52.130;5.430;2023-07-02T09:32:49;101048.56;;;22.26;44.95
71774;BME280;59607;52.130;5.430;2023-07-02T09:35:22;101049.78;;;21.70;44.34
71774;BME280;59607;52.130;5.430;2023-07-02T09:37:56;101049.00;;;21.81;44.92
71774;BME280;59607;52.130;5.430;2023-07-02T09:40:25;101056.44;;;22.33;43.17
71774;BME280;59607;52.130;5.430;2023-07-02T09:42:55;101051.84;;;22.45;42.62
71774;BME280;59607;52.130;5.430;2023-07-02T09:45:37;101059.75;;;21.99;44.47
71774;BME280;59607;52.130;5.430;2023-07-02T09:48:05;101067.31;;;21.78;42.52
71774;BME280;59607;52.130;5.430;2023-07-02T09:50:38;101065.78;;;21.58;42.76
71774;BME280;59607;52.130;5.430;2023-07-02T09:53:06;101065.22;;;21.68;43.26
71774;BME280;59607;52.130;5.430;2023-07-02T09:55:38;101058.56;;;22.18;42.79
71774;BME280;59607;52.130;5.430;2023-07-02T09:58:05;101060.22;;;22.49;40.79
71774;BME280;59607;52.130;5.430;2023-07-02T10:00:40;101058.16;;;22.39;42.29
71774;BME280;59607;52.130;5.430;2023-07-02T10:03:07;101058.53;;;22.72;40.14
71774;BME280;59607;52.130;5.430;2023-07-02T10:05:34;101056.72;;;22.89;39.59
71774;BME280;59607;52.130;5.430;2023-07-02T10:08:13;101057.84;;;22.64;40.14
71774;BME280;59607;52.130;5.430;2023-07-02T10:10:44;101062.00;;;22.43;40.85
71774;BME280;59607;52.130;5.430;2023-07-02T10:13:11;101076.94;;;22.56;38.62
71774;BME280;59607;52.130;5.430;2023-07-02T10:15:38;101069.72;;;22.56;39.53
71774;BME280;59607;52.130;5.430;2023-07-02T10:18:10;101067.59;;;22.29;39.35
71774;BME280;59607;52.130;5.430;2023-07-02T10:20:47;101072.97;;;22.17;39.60
71774;BME280;59607;52.130;5.430;2023-07-02T10:23:17;101078.53;;;22.28;37.51
71774;BME280;59607;52.130;5.430;2023-07-02T10:25:53;101079.16;;;22.47;37.82
71774;BME280;59607;52.130;5.430;2023-07-02T10:28:20;101069.34;;;22.77;39.02
71774;BME280;59607;52.130;5.430;2023-07-02T10:30:55;101081.06;;;22.76;38.73
71774;BME280;59607;52.130;5.430;2023-07-02T10:33:23;101078.06;;;23.01;37.82
71774;BME280;59607;52.130;5.430;2023-07-02T10:35:53;101081.03;;;22.88;38.00
71774;BME280;59607;52.130;5.430;2023-07-02T10:38:22;101087.06;;;23.12;38.08
71774;BME280;59607;52.130;5.430;2023-07-02T10:40:56;101081.41;;;23.43;37.88
71774;BME280;59607;52.130;5.430;2023-07-02T10:43:28;101077.84;;;23.37;37.36
71774;BME280;59607;52.130;5.430;2023-07-02T10:46:00;101090.47;;;23.08;38.91
71774;BME280;59607;52.130;5.430;2023-07-02T10:48:31;101091.84;;;22.81;38.16
71774;BME280;59607;52.130;5.430;2023-07-02T10:51:11;101078.53;;;22.98;39.15
71774;BME280;59607;52.130;5.430;2023-07-02T10:53:43;101088.38;;;23.10;39.87
71774;BME280;59607;52.130;5.430;2023-07-02T10:56:30;101097.31;;;23.03;41.11
71774;BME280;59607;52.130;5.430;2023-07-02T10:58:56;101097.81;;;23.00;40.41
71774;BME280;59607;52.130;5.430;2023-07-02T11:01:33;101106.28;;;22.80;40.50
71774;BME280;59607;52.130;5.430;2023-07-02T11:04:02;101099.28;;;22.38;40.95
71774;BME280;59607;52.130;5.430;2023-07-02T11:06:35;101105.38;;;22.21;40.11
71774;BME280;59607;52.130;5.430;2023-07-02T11:09:02;101103.16;;;22.06;41.03
71774;BME280;59607;52.130;5.430;2023-07-02T11:11:37;101110.50;;;21.87;40.90
71774;BME280;59607;52.130;5.430;2023-07-02T11:14:03;101115.03;;;21.86;40.18
71774;BME280;59607;52.130;5.430;2023-07-02T11:16:31;101113.72;;;21.77;40.95
71774;BME280;59607;52.130;5.430;2023-07-02T11:19:08;101113.03;;;21.69;40.71
71774;BME280;59607;52.130;5.430;2023-07-02T11:21:38;101114.34;;;21.91;40.58
71774;BME280;59607;52.130;5.430;2023-07-02T11:24:12;101104.94;;;22.95;39.17
71774;BME280;59607;52.130;5.430;2023-07-02T11:26:46;101102.25;;;23.41;38.40
71774;BME280;59607;52.130;5.430;2023-07-02T11:29:17;101105.47;;;22.79;39.68
71774;BME280;59607;52.130;5.430;2023-07-02T11:31:49;101104.16;;;22.41;40.04
71774;BME280;59607;52.130;5.430;2023-07-02T11:34:21;101116.59;;;22.35;40.47
71774;BME280;59607;52.130;5.430;2023-07-02T11:36:55;101105.72;;;23.24;40.08
71774;BME280;59607;52.130;5.430;2023-07-02T11:39:28;101103.31;;;23.57;38.94
71774;BME280;59607;52.130;5.430;2023-07-02T11:42:01;101106.94;;;23.85;38.28
71774;BME280;59607;52.130;5.430;2023-07-02T11:44:42;101108.72;;;23.97;37.18
71774;BME280;59607;52.130;5.430;2023-07-02T11:47:11;101102.38;;;24.03;36.75
71774;BME280;59607;52.130;5.430;2023-07-02T11:49:38;101101.03;;;24.06;36.05
71774;BME280;59607;52.130;5.430;2023-07-02T11:52:04;101087.75;;;24.33;36.43
71774;BME280;59607;52.130;5.430;2023-07-02T11:54:34;101094.47;;;24.13;36.88
71774;BME280;59607;52.130;5.430;2023-07-02T11:57:03;101095.00;;;24.33;37.11
71774;BME280;59607;52.130;5.430;2023-07-02T11:59:33;101106.56;;;24.38;35.85
71774;BME280;59607;52.130;5.430;2023-07-02T12:02:05;101120.16;;;23.92;36.10
71774;BME280;59607;52.130;5.430;2023-07-02T12:04:32;101104.69;;;23.42;36.17
71774;BME280;59607;52.130;5.430;2023-07-02T12:07:01;101113.00;;;23.12;36.77
71774;BME280;59607;52.130;5.430;2023-07-02T12:09:32;101118.03;;;23.25;37.95
71774;BME280;59607;52.130;5.430;2023-07-02T12:11:58;101129.75;;;22.90;36.22
71774;BME280;59607;52.130;5.430;2023-07-02T12:14:25;101124.19;;;23.09;37.37
71774;BME280;59607;52.130;5.430;2023-07-02T12:16:51;101122.66;;;23.13;37.64
71774;BME280;59607;52.130;5.430;2023-07-02T12:19:18;101122.81;;;23.06;37.64
71774;BME280;59607;52.130;5.430;2023-07-02T12:21:44;101127.19;;;23.29;37.08
71774;BME280;59607;52.130;5.430;2023-07-02T12:24:17;101127.81;;;23.49;38.26
71774;BME280;59607;52.130;5.430;2023-07-02T12:26:43;101124.03;;;24.01;36.79
71774;BME280;59607;52.130;5.430;2023-07-02T12:29:13;101132.25;;;23.95;36.57
71774;BME280;59607;52.130;5.430;2023-07-02T12:31:40;101138.75;;;23.82;36.22
71774;BME280;59607;52.130;5.430;2023-07-02T12:34:06;101138.06;;;23.52;36.53
71774;BME280;59607;52.130;5.430;2023-07-02T12:36:36;101139.75;;;23.12;37.46
71774;BME280;59607;52.130;5.430;2023-07-02T12:39:12;101139.47;;;22.96;37.80
71774;BME280;59607;52.130;5.430;2023-07-02T12:41:47;101125.88;;;23.61;37.01
71774;BME280;59607;52.130;5.430;2023-07-02T12:44:14;101111.75;;;24.23;37.41
71774;BME280;59607;52.130;5.430;2023-07-02T12:46:42;101117.59;;;24.64;35.47
71774;BME280;59607;52.130;5.430;2023-07-02T12:49:09;101117.66;;;24.70;35.62
71774;BME280;59607;52.130;5.430;2023-07-02T12:51:35;101123.34;;;24.28;36.16
71774;BME280;59607;52.130;5.430;2023-07-02T12:54:04;101133.00;;;23.90;36.06
71774;BME280;59607;52.130;5.430;2023-07-02T12:56:33;101139.34;;;23.84;36.82
71774;BME280;59607;52.130;5.430;2023-07-02T12:59:02;101127.09;;;24.27;36.24
71774;BME280;59607;52.130;5.430;2023-07-02T13:01:40;101138.00;;;24.03;36.14
71774;BME280;59607;52.130;5.430;2023-07-02T13:04:12;101137.34;;;23.96;35.96
71774;BME280;59607;52.130;5.430;2023-07-02T13:06:44;101131.34;;;24.23;34.64
71774;BME280;59607;52.130;5.430;2023-07-02T13:09:12;101130.78;;;24.21;35.27